Delta Billie — WDE8059 — position and weather

sailwx.info

Track history (hours):
 
Tides and Currents Weather Stations Pressure Air Temp Water Temp Dewpoint Dewpoint Depression Visibility Wind Speed Wind Dir Waves Ship Positions

Delta Billie

Owner: Baydelta Maritime, San Francicso, CA. More information available from US FCC via Universal Licensing System and Coast Guard Vessel Documentation Center.

Last reported at 2016-Feb-09 15:33 UTC. Time now 2016-Feb-09 15:43 UTC.
Position N 38°02' W 122°22'.

Length 30 m; draft 5.5 m.

Type: Towing. MMSI: 367401030.

Date/timePositionNaut miles runAvg speedWind from/ knotsBaromVisibWave heightAir tempDewpointWater temp
2016-Feb-09 15:33N 38°02' W 122°22'9 8.5
2016-Feb-09 14:34N 37°54' W 122°26'10 9.8
2016-Feb-09 13:34N 37°45' W 122°21'1 1.5
2016-Feb-09 12:33N 37°46' W 122°22'2 2.4
2016-Feb-09 11:34N 37°48' W 122°24'5 4.7
2016-Feb-09 10:33N 37°53' W 122°25'9 9.4
2016-Feb-09 09:34N 38°02' W 122°22'5 4.8
2016-Feb-09 08:33N 38°03' W 122°16'0 0.0
2016-Feb-09 07:34N 38°03' W 122°16'2 2.0
2016-Feb-09 06:33N 38°03' W 122°18'9 9.0
2016-Feb-09 05:33N 37°56' W 122°26'1 1.1
2016-Feb-09 04:34N 37°56' W 122°25'0 0.2
2016-Feb-09 03:33N 37°55' W 122°25'0 0.2
2016-Feb-09 02:33N 37°56' W 122°25'0 0.0
2016-Feb-09 01:33N 37°56' W 122°25'0 0.0
2016-Feb-09 00:33N 37°56' W 122°25'0 0.0
2016-Feb-08 23:34N 37°56' W 122°25'0 0.0
2016-Feb-08 22:33N 37°56' W 122°25'0 0.0
2016-Feb-08 21:34N 37°56' W 122°25'0 0.0
2016-Feb-08 20:33N 37°56' W 122°25'0 0.0
2016-Feb-08 19:34N 37°56' W 122°25'0 0.0
2016-Feb-08 18:34N 37°56' W 122°25'0 0.0
2016-Feb-08 17:34N 37°56' W 122°25'0 0.0
2016-Feb-08 16:34N 37°56' W 122°25'0 0.1
2016-Feb-08 15:33N 37°56' W 122°25'3 3.0
2016-Feb-08 14:33N 37°53' W 122°25'3 3.0
2016-Feb-08 13:33N 37°56' W 122°25'0 0.0
2016-Feb-08 12:33N 37°56' W 122°25'0 0.0
2016-Feb-08 11:33N 37°56' W 122°25'0 0.0
2016-Feb-08 10:33N 37°56' W 122°25'0 0.0
2016-Feb-08 09:33N 37°56' W 122°25'0 0.0
2016-Feb-08 08:33N 37°56' W 122°25'0 0.0
2016-Feb-08 07:33N 37°56' W 122°25'0 0.0
2016-Feb-08 06:33N 37°56' W 122°25'0 0.0
2016-Feb-08 05:33N 37°56' W 122°25'1 0.7
2016-Feb-08 04:33N 37°55' W 122°25'1 0.7
2016-Feb-08 03:34N 37°56' W 122°25'0 0.1
2016-Feb-08 02:34N 37°56' W 122°25'8 8.2
2016-Feb-08 01:34N 37°49' W 122°20'2 1.8
2016-Feb-08 00:33N 37°48' W 122°22'2 1.7
2016-Feb-07 23:34N 37°48' W 122°24'0 0.0
2016-Feb-07 22:34N 37°48' W 122°24'0 0.0
2016-Feb-07 21:34N 37°48' W 122°24'0 0.0
2016-Feb-07 20:33N 37°48' W 122°24'0 0.0
2016-Feb-07 19:34N 37°48' W 122°24'0 0.0
2016-Feb-07 18:34N 37°48' W 122°24'0 0.0
2016-Feb-07 17:33N 37°48' W 122°24'0 0.0
2016-Feb-07 16:34N 37°48' W 122°24'0 0.0
2016-Feb-07 15:34N 37°48' W 122°24'0 0.0
2016-Feb-07 14:34N 37°48' W 122°24'0 0.0
2016-Feb-07 13:34N 37°48' W 122°24'0 0.0
2016-Feb-07 12:33N 37°48' W 122°24'2 1.9
2016-Feb-07 11:34N 37°48' W 122°22'0 0.2
2016-Feb-07 10:34N 37°48' W 122°21'2 2.0
2016-Feb-07 09:34N 37°48' W 122°24'0 0.0
2016-Feb-07 08:33N 37°48' W 122°24'0 0.0
2016-Feb-07 07:34N 37°48' W 122°24'0 0.0
2016-Feb-07 06:34N 37°48' W 122°24'0 0.0
2016-Feb-07 05:34N 37°48' W 122°24'0 0.0
2016-Feb-07 04:34N 37°48' W 122°24'0 0.0
2016-Feb-07 03:33N 37°48' W 122°24'0 0.0
2016-Feb-07 02:34N 37°48' W 122°24'2 1.9
2016-Feb-07 01:34N 37°48' W 122°22'2 2.0
2016-Feb-07 00:34N 37°48' W 122°19'1 1.2
2016-Feb-06 23:34N 37°48' W 122°20'3 2.7
2016-Feb-06 22:33N 37°48' W 122°24'6 6.1
2016-Feb-06 21:33N 37°43' W 122°19'2 1.9
2016-Feb-06 20:34N 37°45' W 122°20'3 2.5
2016-Feb-06 19:34N 37°47' W 122°21'4 3.5
2016-Feb-06 18:34N 37°49' W 122°25'4 4.4
2016-Feb-06 17:33N 37°49' W 122°31'1 1.0
2016-Feb-06 16:34N 37°49' W 122°30'0 0.3
2016-Feb-06 15:33N 37°49' W 122°29'3 2.8
2016-Feb-06 14:33N 37°51' W 122°27'3 2.8
2016-Feb-06 13:34N 37°49' W 122°29'1 1.4
2016-Feb-06 12:33N 37°49' W 122°31'6 5.6
2016-Feb-06 11:34N 37°52' W 122°25'7 6.6
2016-Feb-06 10:33N 37°59' W 122°26'6 6.0
2016-Feb-06 09:33N 38°03' W 122°20'4 3.7
2016-Feb-06 08:32N 38°03' W 122°16'4 0.2
2016-Feb-05 16:28N 38°03' W 122°11'1 0.1
2016-Feb-05 05:33N 38°04' W 122°12'1010.1
2016-Feb-05 04:33N 38°00' W 122°24'5 4.6
2016-Feb-05 03:34N 37°56' W 122°25'3 2.8
2016-Feb-05 02:34N 37°53' W 122°25'3 3.4
2016-Feb-05 01:33N 37°56' W 122°26'8 8.2
2016-Feb-05 00:34N 38°03' W 122°20'9 0.9
2016-Feb-04 14:33N 38°02' W 122°09'2 0.2
2016-Feb-04 04:32N 38°03' W 122°11'1010.2
2016-Feb-04 03:33N 38°01' W 122°23'6 6.0
2016-Feb-04 02:34N 37°55' W 122°25'1 0.7
2016-Feb-04 01:34N 37°55' W 122°25'1 1.2
2016-Feb-04 00:33N 37°54' W 122°25'5 4.6
2016-Feb-03 23:34N 37°58' W 122°26'1110.3
2016-Feb-03 22:31N 38°04' W 122°14'3 0.1
2016-Feb-03 02:29N 38°03' W 122°11'9 8.2
2016-Feb-03 01:25N 38°02' W 122°22'8 9.0
2016-Feb-03 00:33N 37°55' W 122°26'7 7.1
2016-Feb-02 23:34N 37°48' W 122°29'0 0.5
2016-Feb-02 22:33N 37°48' W 122°30'6 5.8
2016-Feb-02 21:33N 37°52' W 122°25'8 7.6
2016-Feb-02 20:33N 38°00' W 122°24'9 6.7
2016-Feb-02 19:14N 38°04' W 122°14'5 5.4
2016-Feb-02 18:21N 38°02' W 122°09'1 0.0
2016-Feb-02 03:33N 38°02' W 122°08'1 0.5
2016-Feb-02 02:27N 38°02' W 122°08'2 0.0
2016-Jan-31 05:24N 38°03' W 122°11'9 9.1
2016-Jan-31 04:27N 38°02' W 122°22'8 8.7
2016-Jan-31 03:34N 37°55' W 122°25'8 8.1
2016-Jan-31 02:34N 37°48' W 122°20'1 0.7
2016-Jan-31 01:33N 37°48' W 122°19'3 2.8
2016-Jan-31 00:34N 37°49' W 122°21'10 9.5
2016-Jan-30 23:32N 37°58' W 122°26'9 9.1
2016-Jan-30 22:32N 38°04' W 122°16'  
Track history (hours):
 
Tides and Currents Weather Stations Pressure Air Temp Water Temp Dewpoint Dewpoint Depression Visibility Wind Speed Wind Dir Waves Ship Positions

Delta Billie

Owner: Baydelta Maritime, San Francicso, CA. More information available from US FCC via Universal Licensing System and Coast Guard Vessel Documentation Center.

Last reported at 2016-Feb-09 15:33 UTC. Time now 2016-Feb-09 15:43 UTC.
Position N 38°02' W 122°22'.

Length 30 m; draft 5.5 m.

Type: Towing. MMSI: 367401030.

Date/timePositionNaut miles runAvg speedWind from/ knotsBaromVisibWave heightAir tempDewpointWater temp
2016-Feb-09 15:33N 38°02' W 122°22'9 8.5
2016-Feb-09 14:34N 37°54' W 122°26'10 9.8
2016-Feb-09 13:34N 37°45' W 122°21'1 1.5
2016-Feb-09 12:33N 37°46' W 122°22'2 2.4
2016-Feb-09 11:34N 37°48' W 122°24'5 4.7
2016-Feb-09 10:33N 37°53' W 122°25'9 9.4
2016-Feb-09 09:34N 38°02' W 122°22'5 4.8
2016-Feb-09 08:33N 38°03' W 122°16'0 0.0
2016-Feb-09 07:34N 38°03' W 122°16'2 2.0
2016-Feb-09 06:33N 38°03' W 122°18'9 9.0
2016-Feb-09 05:33N 37°56' W 122°26'1 1.1
2016-Feb-09 04:34N 37°56' W 122°25'0 0.2
2016-Feb-09 03:33N 37°55' W 122°25'0 0.2
2016-Feb-09 02:33N 37°56' W 122°25'0 0.0
2016-Feb-09 01:33N 37°56' W 122°25'0 0.0
2016-Feb-09 00:33N 37°56' W 122°25'0 0.0
2016-Feb-08 23:34N 37°56' W 122°25'0 0.0
2016-Feb-08 22:33N 37°56' W 122°25'0 0.0
2016-Feb-08 21:34N 37°56' W 122°25'0 0.0
2016-Feb-08 20:33N 37°56' W 122°25'0 0.0
2016-Feb-08 19:34N 37°56' W 122°25'0 0.0
2016-Feb-08 18:34N 37°56' W 122°25'0 0.0
2016-Feb-08 17:34N 37°56' W 122°25'0 0.0
2016-Feb-08 16:34N 37°56' W 122°25'0 0.1
2016-Feb-08 15:33N 37°56' W 122°25'3 3.0
2016-Feb-08 14:33N 37°53' W 122°25'3 3.0
2016-Feb-08 13:33N 37°56' W 122°25'0 0.0
2016-Feb-08 12:33N 37°56' W 122°25'0 0.0
2016-Feb-08 11:33N 37°56' W 122°25'0 0.0
2016-Feb-08 10:33N 37°56' W 122°25'0 0.0
2016-Feb-08 09:33N 37°56' W 122°25'0 0.0
2016-Feb-08 08:33N 37°56' W 122°25'0 0.0
2016-Feb-08 07:33N 37°56' W 122°25'0 0.0
2016-Feb-08 06:33N 37°56' W 122°25'0 0.0
2016-Feb-08 05:33N 37°56' W 122°25'1 0.7
2016-Feb-08 04:33N 37°55' W 122°25'1 0.7
2016-Feb-08 03:34N 37°56' W 122°25'0 0.1
2016-Feb-08 02:34N 37°56' W 122°25'8 8.2
2016-Feb-08 01:34N 37°49' W 122°20'2 1.8
2016-Feb-08 00:33N 37°48' W 122°22'2 1.7
2016-Feb-07 23:34N 37°48' W 122°24'0 0.0
2016-Feb-07 22:34N 37°48' W 122°24'0 0.0
2016-Feb-07 21:34N 37°48' W 122°24'0 0.0
2016-Feb-07 20:33N 37°48' W 122°24'0 0.0
2016-Feb-07 19:34N 37°48' W 122°24'0 0.0
2016-Feb-07 18:34N 37°48' W 122°24'0 0.0
2016-Feb-07 17:33N 37°48' W 122°24'0 0.0
2016-Feb-07 16:34N 37°48' W 122°24'0 0.0
2016-Feb-07 15:34N 37°48' W 122°24'0 0.0
2016-Feb-07 14:34N 37°48' W 122°24'0 0.0
2016-Feb-07 13:34N 37°48' W 122°24'0 0.0
2016-Feb-07 12:33N 37°48' W 122°24'2 1.9
2016-Feb-07 11:34N 37°48' W 122°22'0 0.2
2016-Feb-07 10:34N 37°48' W 122°21'2 2.0
2016-Feb-07 09:34N 37°48' W 122°24'0 0.0
2016-Feb-07 08:33N 37°48' W 122°24'0 0.0
2016-Feb-07 07:34N 37°48' W 122°24'0 0.0
2016-Feb-07 06:34N 37°48' W 122°24'0 0.0
2016-Feb-07 05:34N 37°48' W 122°24'0 0.0
2016-Feb-07 04:34N 37°48' W 122°24'0 0.0
2016-Feb-07 03:33N 37°48' W 122°24'0 0.0
2016-Feb-07 02:34N 37°48' W 122°24'2 1.9
2016-Feb-07 01:34N 37°48' W 122°22'2 2.0
2016-Feb-07 00:34N 37°48' W 122°19'1 1.2
2016-Feb-06 23:34N 37°48' W 122°20'3 2.7
2016-Feb-06 22:33N 37°48' W 122°24'6 6.1
2016-Feb-06 21:33N 37°43' W 122°19'2 1.9
2016-Feb-06 20:34N 37°45' W 122°20'3 2.5
2016-Feb-06 19:34N 37°47' W 122°21'4 3.5
2016-Feb-06 18:34N 37°49' W 122°25'4 4.4
2016-Feb-06 17:33N 37°49' W 122°31'1 1.0
2016-Feb-06 16:34N 37°49' W 122°30'0 0.3
2016-Feb-06 15:33N 37°49' W 122°29'3 2.8
2016-Feb-06 14:33N 37°51' W 122°27'3 2.8
2016-Feb-06 13:34N 37°49' W 122°29'1 1.4
2016-Feb-06 12:33N 37°49' W 122°31'6 5.6
2016-Feb-06 11:34N 37°52' W 122°25'7 6.6
2016-Feb-06 10:33N 37°59' W 122°26'6 6.0
2016-Feb-06 09:33N 38°03' W 122°20'4 3.7
2016-Feb-06 08:32N 38°03' W 122°16'4 0.2
2016-Feb-05 16:28N 38°03' W 122°11'1 0.1
2016-Feb-05 05:33N 38°04' W 122°12'1010.1
2016-Feb-05 04:33N 38°00' W 122°24'5 4.6
2016-Feb-05 03:34N 37°56' W 122°25'3 2.8
2016-Feb-05 02:34N 37°53' W 122°25'3 3.4
2016-Feb-05 01:33N 37°56' W 122°26'8 8.2
2016-Feb-05 00:34N 38°03' W 122°20'9 0.9
2016-Feb-04 14:33N 38°02' W 122°09'2 0.2
2016-Feb-04 04:32N 38°03' W 122°11'1010.2
2016-Feb-04 03:33N 38°01' W 122°23'6 6.0
2016-Feb-04 02:34N 37°55' W 122°25'1 0.7
2016-Feb-04 01:34N 37°55' W 122°25'1 1.2
2016-Feb-04 00:33N 37°54' W 122°25'5 4.6
2016-Feb-03 23:34N 37°58' W 122°26'1110.3
2016-Feb-03 22:31N 38°04' W 122°14'3 0.1
2016-Feb-03 02:29N 38°03' W 122°11'9 8.2
2016-Feb-03 01:25N 38°02' W 122°22'8 9.0
2016-Feb-03 00:33N 37°55' W 122°26'7 7.1
2016-Feb-02 23:34N 37°48' W 122°29'0 0.5
2016-Feb-02 22:33N 37°48' W 122°30'6 5.8
2016-Feb-02 21:33N 37°52' W 122°25'8 7.6
2016-Feb-02 20:33N 38°00' W 122°24'9 6.7
2016-Feb-02 19:14N 38°04' W 122°14'5 5.4
2016-Feb-02 18:21N 38°02' W 122°09'1 0.0
2016-Feb-02 03:33N 38°02' W 122°08'1 0.5
2016-Feb-02 02:27N 38°02' W 122°08'2 0.0
2016-Jan-31 05:24N 38°03' W 122°11'9 9.1
2016-Jan-31 04:27N 38°02' W 122°22'8 8.7
2016-Jan-31 03:34N 37°55' W 122°25'8 8.1
2016-Jan-31 02:34N 37°48' W 122°20'1 0.7
2016-Jan-31 01:33N 37°48' W 122°19'3 2.8
2016-Jan-31 00:34N 37°49' W 122°21'10 9.5
2016-Jan-30 23:32N 37°58' W 122°26'9 9.1
2016-Jan-30 22:32N 38°04' W 122°16'  

Dump ship's entire track history